createdAt,value
2023-05-05T00:01:13.473Z,64.79
2023-05-05T00:03:42.742Z,65.13
2023-05-05T00:06:10.909Z,64.98
2023-05-05T00:08:38.893Z,64.72
2023-05-05T00:11:07.246Z,65.03
2023-05-05T00:13:36.962Z,65.86
2023-05-05T00:16:06.037Z,65.88
2023-05-05T00:18:34.748Z,65.47
2023-05-05T00:21:02.752Z,65.53
2023-05-05T00:23:30.899Z,65.21
2023-05-05T00:25:58.988Z,65.80
2023-05-05T00:28:27.576Z,65.38
2023-05-05T00:30:57.005Z,65.70
2023-05-05T00:33:26.006Z,65.75
2023-05-05T00:35:54.067Z,66.46
2023-05-05T00:38:22.139Z,66.48
2023-05-05T00:40:50.174Z,66.12
2023-05-05T00:43:18.109Z,66.45
2023-05-05T00:45:48.036Z,66.45
2023-05-05T00:48:18.902Z,66.29
2023-05-05T00:50:47.092Z,66.42
2023-05-05T00:53:15.297Z,66.43
2023-05-05T00:55:43.502Z,67.12
2023-05-05T00:58:13.390Z,66.55
2023-05-05T01:00:41.826Z,67.09
2023-05-05T01:03:10.252Z,66.99
2023-05-05T01:05:47.681Z,67.07
2023-05-05T01:08:27.215Z,67.42
2023-05-05T01:11:02.069Z,66.91
2023-05-05T01:13:37.084Z,67.24
2023-05-05T01:16:12.826Z,67.40
2023-05-05T01:18:49.916Z,66.90
2023-05-05T01:21:27.140Z,66.69
2023-05-05T01:24:17.803Z,66.25
2023-05-05T01:27:01.609Z,66.00
2023-05-05T01:29:42.507Z,65.76
2023-05-05T01:32:15.345Z,65.00
2023-05-05T01:34:50.667Z,65.10
2023-05-05T01:37:23.216Z,64.92
2023-05-05T01:39:55.721Z,64.77
2023-05-05T01:42:26.204Z,64.53
2023-05-05T01:44:55.387Z,64.77
2023-05-05T01:47:26.572Z,64.67
2023-05-05T01:49:55.269Z,64.72
2023-05-05T01:52:24.980Z,64.75
2023-05-05T01:54:54.313Z,65.12
2023-05-05T01:57:26.338Z,65.33
2023-05-05T01:59:56.838Z,65.51
2023-05-05T02:02:28.637Z,65.68
2023-05-05T02:04:58.603Z,65.11
2023-05-05T02:07:28.313Z,65.07
2023-05-05T02:09:57.721Z,64.70
2023-05-05T02:12:26.351Z,64.15
2023-05-05T02:14:55.204Z,63.62
2023-05-05T02:17:24.319Z,63.23
2023-05-05T02:19:55.584Z,62.79
2023-05-05T02:22:23.683Z,63.18
2023-05-05T02:24:51.918Z,63.07
2023-05-05T02:27:23.212Z,62.81
2023-05-05T02:29:55.338Z,62.96
2023-05-05T02:32:29.240Z,62.16
2023-05-05T02:35:04.224Z,61.92
2023-05-05T02:37:34.913Z,61.82
2023-05-05T02:40:06.507Z,61.01
2023-05-05T02:42:39.395Z,60.71
2023-05-05T02:45:13.553Z,60.94
2023-05-05T02:47:45.686Z,61.14
2023-05-05T02:50:16.387Z,61.00
2023-05-05T02:52:53.234Z,60.91
2023-05-05T02:55:23.713Z,61.09
2023-05-05T02:58:06.713Z,62.01
2023-05-05T03:00:48.479Z,61.72
2023-05-05T03:03:23.381Z,62.55
2023-05-05T03:06:01.645Z,61.74
2023-05-05T03:08:38.057Z,61.86
2023-05-05T03:11:15.863Z,61.90
2023-05-05T03:13:47.856Z,62.07
2023-05-05T03:16:20.049Z,61.70
2023-05-05T03:18:52.024Z,61.81
2023-05-05T03:21:22.559Z,61.66
2023-05-05T03:23:51.089Z,62.06
2023-05-05T03:26:21.991Z,61.78
2023-05-05T03:28:50.190Z,61.54
2023-05-05T03:31:31.480Z,61.52
2023-05-05T03:34:01.954Z,61.07
2023-05-05T03:36:36.911Z,60.75
2023-05-05T03:39:05.297Z,61.00
2023-05-05T03:41:35.329Z,60.24
2023-05-05T03:44:04.585Z,60.25
2023-05-05T03:46:33.027Z,60.14
2023-05-05T03:49:00.987Z,58.09
2023-05-05T03:51:29.584Z,58.17
2023-05-05T03:54:00.330Z,58.37
2023-05-05T03:56:28.584Z,57.90
2023-05-05T03:58:56.590Z,58.41
2023-05-05T04:01:25.336Z,58.73
2023-05-05T04:03:53.751Z,58.60
2023-05-05T04:06:21.842Z,58.82
2023-05-05T04:08:50.009Z,58.80
2023-05-05T04:11:19.467Z,58.83
2023-05-05T04:13:48.566Z,59.45
2023-05-05T04:16:17.027Z,60.04
2023-05-05T04:18:45.365Z,60.32
2023-05-05T04:21:13.387Z,60.29
2023-05-05T04:23:41.904Z,60.09
2023-05-05T04:26:09.883Z,60.39
2023-05-05T04:28:39.415Z,59.94
2023-05-05T04:31:08.098Z,59.95
2023-05-05T04:33:39.394Z,58.84
2023-05-05T04:36:08.199Z,58.47
2023-05-05T04:38:36.769Z,56.47
2023-05-05T04:41:07.274Z,51.20
2023-05-05T04:43:36.584Z,50.83
2023-05-05T04:46:06.427Z,47.15
2023-05-05T04:48:37.983Z,44.02
2023-05-05T04:51:07.086Z,39.65
2023-05-05T04:53:36.073Z,36.93
2023-05-05T04:56:04.201Z,35.16
2023-05-05T04:58:32.284Z,35.24
2023-05-05T05:01:00.489Z,35.94
2023-05-05T05:03:31.991Z,37.56
2023-05-05T05:06:00.336Z,39.48
2023-05-05T05:08:28.334Z,40.43
2023-05-05T05:10:57.176Z,42.07
2023-05-05T05:13:25.676Z,43.62
2023-05-05T05:15:53.821Z,46.19
2023-05-05T05:18:21.887Z,48.95
2023-05-05T05:20:52.730Z,50.90
2023-05-05T05:23:21.141Z,53.07
2023-05-05T05:25:49.308Z,55.71
2023-05-05T05:28:19.709Z,56.84
2023-05-05T05:30:53.177Z,57.17
2023-05-05T05:33:21.480Z,57.25
2023-05-05T05:35:50.367Z,57.21
2023-05-05T05:38:22.243Z,56.82
2023-05-05T05:40:54.525Z,57.03
2023-05-05T05:43:23.054Z,57.40
2023-05-05T05:45:52.030Z,58.17
2023-05-05T05:48:22.202Z,58.83
2023-05-05T05:50:50.512Z,58.88
2023-05-05T05:53:19.013Z,58.36
2023-05-05T05:55:48.631Z,58.31
2023-05-05T05:58:19.578Z,58.47
2023-05-05T06:00:49.240Z,58.43
2023-05-05T06:03:18.353Z,58.08
2023-05-05T06:05:47.157Z,57.52
2023-05-05T06:08:16.311Z,58.72
2023-05-05T06:10:50.432Z,59.20
2023-05-05T06:13:21.476Z,58.55
2023-05-05T06:15:52.046Z,57.84
2023-05-05T06:18:21.204Z,57.54
2023-05-05T06:20:50.826Z,56.85
2023-05-05T06:23:20.035Z,56.14
2023-05-05T06:25:55.695Z,55.44
2023-05-05T06:28:23.802Z,54.82
2023-05-05T06:30:51.892Z,53.73
2023-05-05T06:33:20.205Z,51.99
2023-05-05T06:35:49.572Z,52.15
2023-05-05T06:38:17.671Z,50.26
2023-05-05T06:40:45.679Z,49.85
2023-05-05T06:43:15.238Z,48.86
2023-05-05T06:45:48.824Z,48.56
2023-05-05T06:48:16.935Z,46.49
2023-05-05T06:50:44.953Z,46.13
2023-05-05T06:53:12.974Z,45.55
2023-05-05T06:55:44.016Z,44.14
2023-05-05T06:58:12.248Z,43.38
2023-05-05T07:00:42.222Z,41.20
2023-05-05T07:03:10.441Z,39.47
2023-05-05T07:05:38.595Z,36.47
2023-05-05T07:08:09.097Z,34.65
2023-05-05T07:10:37.171Z,33.99
2023-05-05T07:13:05.357Z,30.83
2023-05-05T07:15:33.558Z,29.59
2023-05-05T07:18:03.021Z,27.60
2023-05-05T07:20:31.081Z,26.49
2023-05-05T07:22:59.147Z,24.68
2023-05-05T07:25:27.143Z,24.67
2023-05-05T07:27:55.586Z,22.33
2023-05-05T07:30:25.001Z,22.08
2023-05-05T07:32:55.022Z,22.23
2023-05-05T07:35:24.816Z,21.50
2023-05-05T07:37:53.057Z,21.49
2023-05-05T07:40:21.011Z,20.14
2023-05-05T07:42:49.209Z,20.06
2023-05-05T07:45:17.312Z,20.25
2023-05-05T07:47:45.407Z,20.91
2023-05-05T07:50:13.604Z,22.09
2023-05-05T07:52:49.981Z,22.82
2023-05-05T07:55:24.414Z,24.15
2023-05-05T07:57:52.434Z,25.75
2023-05-05T08:00:21.720Z,25.32
2023-05-05T08:02:50.047Z,25.79
2023-05-05T08:05:18.381Z,25.34
2023-05-05T08:07:47.916Z,24.69
2023-05-05T08:10:15.950Z,24.85
2023-05-05T08:12:44.031Z,23.89
2023-05-05T08:15:12.607Z,24.25
2023-05-05T08:17:48.120Z,25.08
2023-05-05T08:20:16.664Z,23.30
2023-05-05T08:22:45.118Z,23.47
2023-05-05T08:25:15.284Z,26.28
2023-05-05T08:27:44.337Z,28.58
2023-05-05T08:30:13.278Z,29.79
2023-05-05T08:32:41.449Z,30.06
2023-05-05T08:35:10.541Z,31.14
2023-05-05T08:37:39.018Z,31.96
2023-05-05T08:40:08.544Z,32.32
2023-05-05T08:42:39.507Z,32.74
2023-05-05T08:45:10.934Z,32.38
2023-05-05T08:47:40.251Z,32.86
2023-05-05T08:50:11.269Z,32.65
2023-05-05T08:52:43.952Z,32.83
2023-05-05T08:55:16.954Z,32.53
2023-05-05T08:57:51.872Z,31.66
2023-05-05T09:00:21.247Z,31.67
2023-05-05T09:02:49.791Z,31.71
2023-05-05T09:05:18.628Z,31.70
2023-05-05T09:07:47.506Z,32.02
2023-05-05T09:10:15.937Z,30.60
2023-05-05T09:12:44.460Z,30.51
2023-05-05T09:15:15.640Z,30.38
2023-05-05T09:17:44.146Z,29.68
2023-05-05T09:20:13.541Z,29.71
2023-05-05T09:22:43.000Z,29.16
2023-05-05T09:25:12.528Z,29.67
2023-05-05T09:27:42.220Z,29.31
2023-05-05T09:30:12.397Z,30.31
2023-05-05T09:32:50.133Z,31.89
2023-05-05T09:35:19.779Z,31.95
2023-05-05T09:37:48.379Z,33.05
2023-05-05T09:40:18.299Z,33.48
2023-05-05T09:42:48.417Z,33.72
2023-05-05T09:45:28.060Z,33.70
2023-05-05T09:48:00.286Z,34.35
2023-05-05T09:50:30.864Z,35.37
2023-05-05T09:53:00.970Z,35.56
2023-05-05T09:55:31.153Z,34.22
2023-05-05T09:58:17.810Z,33.75
2023-05-05T10:00:46.609Z,34.33
2023-05-05T10:03:16.140Z,34.63
2023-05-05T10:05:52.020Z,33.32
2023-05-05T10:08:21.959Z,33.38
2023-05-05T10:10:54.300Z,34.21
2023-05-05T10:13:24.203Z,34.16
2023-05-05T10:15:55.354Z,34.59
2023-05-05T10:18:27.071Z,34.37
2023-05-05T10:20:59.144Z,34.39
2023-05-05T10:23:35.956Z,35.71
2023-05-05T10:26:06.932Z,35.45
2023-05-05T10:28:38.389Z,36.96
2023-05-05T10:31:24.182Z,36.24
2023-05-05T10:34:01.557Z,36.16
2023-05-05T10:36:31.795Z,34.38
2023-05-05T10:39:02.373Z,33.28
2023-05-05T10:41:31.895Z,31.89
2023-05-05T10:44:02.874Z,32.60
2023-05-05T10:46:32.953Z,33.52
2023-05-05T10:49:13.195Z,33.36
2023-05-05T10:51:48.306Z,37.02
2023-05-05T10:54:24.305Z,38.03
2023-05-05T10:56:52.997Z,39.44
2023-05-05T10:59:43.919Z,38.96
2023-05-05T11:02:26.771Z,39.75
2023-05-05T11:05:17.677Z,41.21
2023-05-05T11:07:47.175Z,40.77
2023-05-05T11:10:16.560Z,41.86
2023-05-05T11:13:18.981Z,43.32
2023-05-05T11:15:47.315Z,43.98
2023-05-05T11:18:37.625Z,41.97
2023-05-05T11:21:16.658Z,42.56
2023-05-05T11:23:47.179Z,41.91
2023-05-05T11:26:17.608Z,42.32
2023-05-05T11:29:00.201Z,42.37
2023-05-05T11:31:28.957Z,41.83
2023-05-05T11:34:25.559Z,41.99
2023-05-05T11:36:58.629Z,41.86
2023-05-05T11:39:44.292Z,41.71
2023-05-05T11:42:26.568Z,40.40
2023-05-05T11:44:55.445Z,40.32
2023-05-05T11:47:31.671Z,40.50
2023-05-05T11:50:00.406Z,39.51
2023-05-05T11:52:29.795Z,39.81
2023-05-05T11:55:02.473Z,40.62
2023-05-05T11:57:31.944Z,39.82
2023-05-05T12:00:01.810Z,39.27
2023-05-05T12:02:33.003Z,39.25
2023-05-05T12:05:01.875Z,39.12
2023-05-05T12:07:34.207Z,39.26
2023-05-05T12:10:02.563Z,38.03
2023-05-05T12:12:36.314Z,38.65
2023-05-05T12:15:06.533Z,39.57
2023-05-05T12:17:40.723Z,38.94
2023-05-05T12:20:11.469Z,39.04
2023-05-05T12:22:41.444Z,40.28
2023-05-05T12:25:10.378Z,40.00
2023-05-05T12:27:38.855Z,41.02
2023-05-05T12:30:16.126Z,41.14
2023-05-05T12:32:46.427Z,41.21
2023-05-05T12:35:16.082Z,41.10
2023-05-05T12:37:45.848Z,42.16
2023-05-05T12:40:48.481Z,42.93
2023-05-05T12:43:30.395Z,42.59
2023-05-05T12:46:04.323Z,43.79
2023-05-05T12:48:32.830Z,43.91
2023-05-05T12:51:18.215Z,42.27
2023-05-05T12:53:48.844Z,41.86
2023-05-05T12:56:37.548Z,40.93
2023-05-05T12:59:07.795Z,40.23
2023-05-05T13:01:36.573Z,40.16
2023-05-05T13:04:10.783Z,39.54
2023-05-05T13:06:39.981Z,38.63
2023-05-05T13:09:11.013Z,39.07
2023-05-05T13:11:39.824Z,37.49
2023-05-05T13:14:08.314Z,37.75
2023-05-05T13:16:36.466Z,37.68
2023-05-05T13:19:04.696Z,37.04
2023-05-05T13:21:32.922Z,37.23
2023-05-05T13:24:12.480Z,37.94
2023-05-05T13:26:50.698Z,37.37
2023-05-05T13:29:19.692Z,37.74
2023-05-05T13:31:47.827Z,37.62
2023-05-05T13:34:16.004Z,37.35
2023-05-05T13:36:43.973Z,37.14
2023-05-05T13:39:12.635Z,37.70
2023-05-05T13:41:40.951Z,38.21
2023-05-05T13:44:10.495Z,39.13
2023-05-05T13:46:38.944Z,40.00
2023-05-05T13:49:07.029Z,41.32
2023-05-05T13:51:36.415Z,42.64
2023-05-05T13:54:05.020Z,42.29
2023-05-05T13:56:33.589Z,42.81
2023-05-05T13:59:02.473Z,43.55
2023-05-05T14:01:32.771Z,43.88
2023-05-05T14:04:03.543Z,42.84
2023-05-05T14:06:33.667Z,43.10
2023-05-05T14:09:01.990Z,42.34
2023-05-05T14:11:31.566Z,42.17
2023-05-05T14:13:59.573Z,42.08
2023-05-05T14:16:27.669Z,41.88
2023-05-05T14:18:57.048Z,42.63
2023-05-05T14:21:25.219Z,44.02
2023-05-05T14:23:53.257Z,43.41
2023-05-05T14:26:21.460Z,43.76
2023-05-05T14:28:50.374Z,45.16
2023-05-05T14:31:18.580Z,45.71
2023-05-05T14:33:46.608Z,45.61
2023-05-05T14:36:16.138Z,45.83
2023-05-05T14:38:44.453Z,45.55
2023-05-05T14:41:12.518Z,44.68
2023-05-05T14:43:41.385Z,44.75
2023-05-05T14:46:09.423Z,44.46
2023-05-05T14:48:38.094Z,43.85
2023-05-05T14:51:06.708Z,44.37
2023-05-05T14:53:36.860Z,42.97
2023-05-05T14:56:04.943Z,43.40
2023-05-05T14:58:33.101Z,43.62
2023-05-05T15:01:01.525Z,43.46
2023-05-05T15:03:29.763Z,42.63
2023-05-05T15:05:57.944Z,43.21
2023-05-05T15:08:25.982Z,42.45
2023-05-05T15:10:55.562Z,43.19
2023-05-05T15:13:23.685Z,42.88
2023-05-05T15:15:51.799Z,42.51
2023-05-05T15:18:20.114Z,42.19
2023-05-05T15:20:48.103Z,41.10
2023-05-05T15:23:16.198Z,41.76
2023-05-05T15:25:44.331Z,41.85
2023-05-05T15:28:13.765Z,41.62
2023-05-05T15:30:41.901Z,42.68
2023-05-05T15:33:10.035Z,42.88
2023-05-05T15:35:38.386Z,44.23
2023-05-05T15:38:07.692Z,43.41
2023-05-05T15:40:35.780Z,43.18
2023-05-05T15:43:03.831Z,42.27
2023-05-05T15:45:34.532Z,40.48
2023-05-05T15:48:02.652Z,39.59
2023-05-05T15:50:31.034Z,39.77
2023-05-05T15:52:59.438Z,39.42
2023-05-05T15:55:28.154Z,39.96
2023-05-05T15:57:56.156Z,39.05
2023-05-05T16:00:24.249Z,39.10
2023-05-05T16:02:53.658Z,38.58
2023-05-05T16:05:23.088Z,38.36
2023-05-05T16:07:52.584Z,37.55
2023-05-05T16:10:20.747Z,37.71
2023-05-05T16:12:48.812Z,37.61
2023-05-05T16:15:16.956Z,37.38
2023-05-05T16:17:45.332Z,37.41
2023-05-05T16:20:15.033Z,36.12
2023-05-05T16:22:43.603Z,35.61
2023-05-05T16:25:11.827Z,35.94
2023-05-05T16:27:40.115Z,36.43
2023-05-05T16:30:10.266Z,36.77
2023-05-05T16:32:39.585Z,36.99
2023-05-05T16:35:09.285Z,36.17
2023-05-05T16:37:38.945Z,36.92
2023-05-05T16:40:08.335Z,35.99
2023-05-05T16:42:36.354Z,35.80
2023-05-05T16:45:04.619Z,35.90
2023-05-05T16:47:32.728Z,36.06
2023-05-05T16:50:00.788Z,36.46
2023-05-05T16:52:29.333Z,36.83
2023-05-05T16:54:58.943Z,37.07
2023-05-05T16:57:27.095Z,37.05
2023-05-05T16:59:56.864Z,37.14
2023-05-05T17:02:25.085Z,37.33
2023-05-05T17:04:53.201Z,36.37
2023-05-05T17:07:22.415Z,36.84
2023-05-05T17:09:51.107Z,36.59
2023-05-05T17:12:20.561Z,36.22
2023-05-05T17:14:48.702Z,36.44
2023-05-05T17:17:16.948Z,36.30
2023-05-05T17:19:45.465Z,36.41
2023-05-05T17:22:13.488Z,36.20
2023-05-05T17:24:41.553Z,36.10
2023-05-05T17:27:09.689Z,35.81
2023-05-05T17:29:40.921Z,35.88
2023-05-05T17:32:09.386Z,36.19
2023-05-05T17:34:37.589Z,36.34
2023-05-05T17:37:05.559Z,36.21
2023-05-05T17:39:33.910Z,36.51
2023-05-05T17:42:02.116Z,36.64
2023-05-05T17:44:31.465Z,37.20
2023-05-05T17:47:02.807Z,37.25
2023-05-05T17:49:30.989Z,37.60
2023-05-05T17:51:58.989Z,37.94
2023-05-05T17:54:27.310Z,38.28
2023-05-05T17:56:55.452Z,38.64
2023-05-05T17:59:23.534Z,37.70
2023-05-05T18:01:51.668Z,37.06
2023-05-05T18:04:21.067Z,36.96
2023-05-05T18:06:49.137Z,36.69
2023-05-05T18:09:17.671Z,36.85
2023-05-05T18:11:45.919Z,37.15
2023-05-05T18:14:13.914Z,37.17
2023-05-05T18:16:43.842Z,37.32
2023-05-05T18:19:11.988Z,37.95
2023-05-05T18:21:41.737Z,37.87
2023-05-05T18:24:19.473Z,38.34
2023-05-05T18:26:50.017Z,39.23
2023-05-05T18:29:18.282Z,39.12
2023-05-05T18:31:48.426Z,38.90
2023-05-05T18:34:17.714Z,38.88
2023-05-05T18:36:47.815Z,39.34
2023-05-05T18:39:16.462Z,39.19
2023-05-05T18:41:44.523Z,39.63
2023-05-05T18:44:12.674Z,39.60
2023-05-05T18:46:43.089Z,39.48
2023-05-05T18:49:11.262Z,39.28
2023-05-05T18:51:39.298Z,38.87
2023-05-05T18:54:08.813Z,39.16
2023-05-05T18:56:36.924Z,39.45
2023-05-05T18:59:05.763Z,39.64
2023-05-05T19:01:33.849Z,39.73
2023-05-05T19:04:01.948Z,40.49
2023-05-05T19:06:30.010Z,40.79
2023-05-05T19:08:58.159Z,40.84
2023-05-05T19:11:27.644Z,41.06
2023-05-05T19:13:55.590Z,40.87
2023-05-05T19:16:23.798Z,41.30
2023-05-05T19:18:54.291Z,41.20
2023-05-05T19:21:22.417Z,41.32
2023-05-05T19:23:50.603Z,41.06
2023-05-05T19:26:18.662Z,41.36
2023-05-05T19:28:48.149Z,42.20
2023-05-05T19:31:16.433Z,42.18
2023-05-05T19:33:45.625Z,41.72
2023-05-05T19:36:14.035Z,42.49
2023-05-05T19:38:44.574Z,42.30
2023-05-05T19:41:13.837Z,42.31
2023-05-05T19:43:42.079Z,42.72
2023-05-05T19:46:11.482Z,42.95
2023-05-05T19:48:40.415Z,42.84
2023-05-05T19:51:08.394Z,42.85
2023-05-05T19:53:36.473Z,43.34
2023-05-05T19:56:04.930Z,43.51
2023-05-05T19:58:52.942Z,43.45
2023-05-05T20:01:22.830Z,43.72
2023-05-05T20:03:51.079Z,43.55
2023-05-05T20:06:19.271Z,43.83
2023-05-05T20:08:47.598Z,44.19
2023-05-05T20:11:17.012Z,44.02
2023-05-05T20:13:45.347Z,44.08
2023-05-05T20:16:14.816Z,43.93
2023-05-05T20:18:44.373Z,44.63
2023-05-05T20:21:12.676Z,44.91
2023-05-05T20:23:42.777Z,45.44
2023-05-05T20:26:11.365Z,45.52
2023-05-05T20:28:40.407Z,45.44
2023-05-05T20:31:10.896Z,45.15
2023-05-05T20:33:38.936Z,45.84
2023-05-05T20:36:08.613Z,46.26
2023-05-05T20:38:37.444Z,46.30
2023-05-05T20:41:06.191Z,46.58
2023-05-05T20:43:35.277Z,46.91
2023-05-05T20:46:03.818Z,47.33
2023-05-05T20:48:32.390Z,46.52
2023-05-05T20:51:03.850Z,46.84
2023-05-05T20:53:33.630Z,46.83
2023-05-05T20:56:02.368Z,47.36
2023-05-05T20:58:31.018Z,47.37
2023-05-05T21:00:59.300Z,46.95
2023-05-05T21:03:27.455Z,47.08
2023-05-05T21:05:55.646Z,47.18
2023-05-05T21:08:23.719Z,47.58
2023-05-05T21:10:53.249Z,48.08
2023-05-05T21:13:21.536Z,47.50
2023-05-05T21:15:51.282Z,47.53
2023-05-05T21:18:19.236Z,47.02
2023-05-05T21:20:47.200Z,47.04
2023-05-05T21:23:15.310Z,46.60
2023-05-05T21:25:43.315Z,46.64
2023-05-05T21:28:12.736Z,45.75
2023-05-05T21:30:40.828Z,45.72
2023-05-05T21:33:08.815Z,45.76
2023-05-05T21:35:36.974Z,45.94
2023-05-05T21:38:05.226Z,46.45
2023-05-05T21:40:33.208Z,46.02
2023-05-05T21:43:01.166Z,46.85
2023-05-05T21:45:30.526Z,47.22
2023-05-05T21:47:58.608Z,47.11
2023-05-05T21:50:28.847Z,46.46
2023-05-05T21:52:57.696Z,47.05
2023-05-05T21:55:25.705Z,47.25
2023-05-05T21:57:53.687Z,47.14
2023-05-05T22:00:21.801Z,46.44
2023-05-05T22:02:51.293Z,47.47
2023-05-05T22:05:20.537Z,46.76
2023-05-05T22:07:48.550Z,47.12
2023-05-05T22:10:16.613Z,47.45
2023-05-05T22:12:44.653Z,47.25
2023-05-05T22:15:12.852Z,46.82
2023-05-05T22:17:40.933Z,47.21
2023-05-05T22:20:11.719Z,46.50
2023-05-05T22:22:39.846Z,47.33
2023-05-05T22:25:08.586Z,47.17
2023-05-05T22:27:36.812Z,47.25
2023-05-05T22:30:05.608Z,47.26
2023-05-05T22:32:33.776Z,47.12
2023-05-05T22:35:02.569Z,47.18
2023-05-05T22:37:32.618Z,46.58
2023-05-05T22:40:00.796Z,46.99
2023-05-05T22:42:29.666Z,47.08
2023-05-05T22:44:57.771Z,46.87
2023-05-05T22:47:25.944Z,47.50
2023-05-05T22:49:54.336Z,47.23
2023-05-05T22:52:22.406Z,47.06
2023-05-05T22:54:51.853Z,46.77
2023-05-05T22:57:19.914Z,47.20
2023-05-05T22:59:47.968Z,47.07
2023-05-05T23:02:16.058Z,46.74
2023-05-05T23:04:44.612Z,46.59
2023-05-05T23:07:13.379Z,46.68
2023-05-05T23:09:41.766Z,46.22
2023-05-05T23:12:11.100Z,46.16
2023-05-05T23:14:39.638Z,46.23
2023-05-05T23:17:08.406Z,46.70
2023-05-05T23:19:36.825Z,45.90
2023-05-05T23:22:05.552Z,45.99
2023-05-05T23:24:33.682Z,45.84
2023-05-05T23:27:03.054Z,46.01
2023-05-05T23:29:32.682Z,46.49
2023-05-05T23:32:00.675Z,46.90
2023-05-05T23:34:28.701Z,46.22
2023-05-05T23:36:57.216Z,46.21
2023-05-05T23:39:25.463Z,46.47
2023-05-05T23:41:53.427Z,46.72
2023-05-05T23:44:22.408Z,46.10
2023-05-05T23:46:51.736Z,45.87
2023-05-05T23:49:19.685Z,46.02
2023-05-05T23:51:47.711Z,45.82
2023-05-05T23:54:15.698Z,46.14
2023-05-05T23:56:43.743Z,45.53
2023-05-05T23:59:11.794Z,45.38
